sensor_id;sensor_type;location;lat;lon;timestamp;temperature;humidity
814;DHT22;389;48.710;9.392;2023-04-25T00:00:27;10.00;97.00
814;DHT22;389;48.710;9.392;2023-04-25T00:02:52;10.10;96.80
814;DHT22;389;48.710;9.392;2023-04-25T00:05:18;10.10;96.80
814;DHT22;389;48.710;9.392;2023-04-25T00:07:45;10.10;96.80
814;DHT22;389;48.710;9.392;2023-04-25T00:10:14;10.10;96.80
814;DHT22;389;48.710;9.392;2023-04-25T00:12:40;10.00;96.60
814;DHT22;389;48.710;9.392;2023-04-25T00:15:07;10.10;96.70
814;DHT22;389;48.710;9.392;2023-04-25T00:17:33;10.10;96.70
814;DHT22;389;48.710;9.392;2023-04-25T00:20:00;10.10;96.80
814;DHT22;389;48.710;9.392;2023-04-25T00:22:26;10.00;96.70
814;DHT22;389;48.710;9.392;2023-04-25T00:24:52;10.00;96.70
814;DHT22;389;48.710;9.392;2023-04-25T00:27:18;10.10;96.60
814;DHT22;389;48.710;9.392;2023-04-25T00:29:45;10.10;96.60
814;DHT22;389;48.710;9.392;2023-04-25T00:32:11;10.10;96.60
814;DHT22;389;48.710;9.392;2023-04-25T00:34:37;10.10;96.60
814;DHT22;389;48.710;9.392;2023-04-25T00:37:02;10.20;96.60
814;DHT22;389;48.710;9.392;2023-04-25T00:39:28;10.10;96.50
814;DHT22;389;48.710;9.392;2023-04-25T00:41:54;10.10;96.60
814;DHT22;389;48.710;9.392;2023-04-25T00:44:20;10.00;96.70
814;DHT22;389;48.710;9.392;2023-04-25T00:46:47;10.10;96.80
814;DHT22;389;48.710;9.392;2023-04-25T00:49:15;10.00;96.90
814;DHT22;389;48.710;9.392;2023-04-25T00:51:48;10.10;97.30
814;DHT22;389;48.710;9.392;2023-04-25T00:54:14;10.00;97.00
814;DHT22;389;48.710;9.392;2023-04-25T00:56:41;10.00;97.00
814;DHT22;389;48.710;9.392;2023-04-25T00:59:06;10.10;97.10
814;DHT22;389;48.710;9.392;2023-04-25T01:01:33;10.00;97.10
814;DHT22;389;48.710;9.392;2023-04-25T01:04:00;10.10;97.20
814;DHT22;389;48.710;9.392;2023-04-25T01:06:26;10.00;97.20
814;DHT22;389;48.710;9.392;2023-04-25T01:08:53;10.10;97.30
814;DHT22;389;48.710;9.392;2023-04-25T01:11:19;10.10;97.30
814;DHT22;389;48.710;9.392;2023-04-25T01:13:45;10.10;97.30
814;DHT22;389;48.710;9.392;2023-04-25T01:16:11;10.00;97.30
814;DHT22;389;48.710;9.392;2023-04-25T01:18:39;10.10;97.40
814;DHT22;389;48.710;9.392;2023-04-25T01:21:09;10.10;97.40
814;DHT22;389;48.710;9.392;2023-04-25T01:23:36;10.00;97.40
814;DHT22;389;48.710;9.392;2023-04-25T01:26:02;10.00;97.50
814;DHT22;389;48.710;9.392;2023-04-25T01:28:29;10.00;97.50
814;DHT22;389;48.710;9.392;2023-04-25T01:30:56;9.90;98.00
814;DHT22;389;48.710;9.392;2023-04-25T01:33:22;10.00;97.50
814;DHT22;389;48.710;9.392;2023-04-25T01:35:48;10.10;97.50
814;DHT22;389;48.710;9.392;2023-04-25T01:38:14;10.00;97.40
814;DHT22;389;48.710;9.392;2023-04-25T01:40:40;10.10;97.40
814;DHT22;389;48.710;9.392;2023-04-25T01:43:08;10.00;97.20
814;DHT22;389;48.710;9.392;2023-04-25T01:45:41;10.10;97.20
814;DHT22;389;48.710;9.392;2023-04-25T01:48:12;10.10;97.20
814;DHT22;389;48.710;9.392;2023-04-25T01:50:39;10.10;97.20
814;DHT22;389;48.710;9.392;2023-04-25T01:53:05;10.10;97.30
814;DHT22;389;48.710;9.392;2023-04-25T01:55:31;10.10;97.60
814;DHT22;389;48.710;9.392;2023-04-25T01:57:57;10.10;97.50
814;DHT22;389;48.710;9.392;2023-04-25T02:00:23;10.10;97.60
814;DHT22;389;48.710;9.392;2023-04-25T02:02:48;10.00;97.80
814;DHT22;389;48.710;9.392;2023-04-25T02:05:16;10.00;97.90
814;DHT22;389;48.710;9.392;2023-04-25T02:07:44;10.00;97.90
814;DHT22;389;48.710;9.392;2023-04-25T02:10:09;10.00;98.00
814;DHT22;389;48.710;9.392;2023-04-25T02:12:36;10.10;98.20
814;DHT22;389;48.710;9.392;2023-04-25T02:15:01;10.10;98.30
814;DHT22;389;48.710;9.392;2023-04-25T02:17:27;10.00;98.30
814;DHT22;389;48.710;9.392;2023-04-25T02:19:53;10.00;98.40
814;DHT22;389;48.710;9.392;2023-04-25T02:22:19;10.00;98.50
814;DHT22;389;48.710;9.392;2023-04-25T02:24:45;10.00;98.70
814;DHT22;389;48.710;9.392;2023-04-25T02:27:10;9.90;99.30
814;DHT22;389;48.710;9.392;2023-04-25T02:29:36;9.90;99.30
814;DHT22;389;48.710;9.392;2023-04-25T02:32:01;9.80;99.30
814;DHT22;389;48.710;9.392;2023-04-25T02:34:27;9.80;99.50
814;DHT22;389;48.710;9.392;2023-04-25T02:36:52;9.80;99.60
814;DHT22;389;48.710;9.392;2023-04-25T02:39:18;9.70;99.80
814;DHT22;389;48.710;9.392;2023-04-25T02:41:44;9.70;99.80
814;DHT22;389;48.710;9.392;2023-04-25T02:44:09;9.60;99.80
814;DHT22;389;48.710;9.392;2023-04-25T02:46:35;9.60;99.90
814;DHT22;389;48.710;9.392;2023-04-25T02:49:01;9.60;99.90
814;DHT22;389;48.710;9.392;2023-04-25T02:51:26;9.50;99.90
814;DHT22;389;48.710;9.392;2023-04-25T02:53:52;9.50;99.90
814;DHT22;389;48.710;9.392;2023-04-25T02:56:17;9.50;99.90
814;DHT22;389;48.710;9.392;2023-04-25T02:58:43;9.50;99.90
814;DHT22;389;48.710;9.392;2023-04-25T03:01:09;9.50;99.90
814;DHT22;389;48.710;9.392;2023-04-25T03:03:34;9.40;99.90
814;DHT22;389;48.710;9.392;2023-04-25T03:06:00;9.40;99.90
814;DHT22;389;48.710;9.392;2023-04-25T03:08:25;9.30;99.90
814;DHT22;389;48.710;9.392;2023-04-25T03:10:54;9.40;99.90
814;DHT22;389;48.710;9.392;2023-04-25T03:13:21;9.30;99.90
814;DHT22;389;48.710;9.392;2023-04-25T03:15:46;9.20;99.90
814;DHT22;389;48.710;9.392;2023-04-25T03:18:12;9.20;99.90
814;DHT22;389;48.710;9.392;2023-04-25T03:20:37;9.20;99.90
814;DHT22;389;48.710;9.392;2023-04-25T03:23:04;9.10;99.90
814;DHT22;389;48.710;9.392;2023-04-25T03:25:30;9.10;99.90
814;DHT22;389;48.710;9.392;2023-04-25T03:27:56;9.10;99.90
814;DHT22;389;48.710;9.392;2023-04-25T03:30:37;9.00;99.90
814;DHT22;389;48.710;9.392;2023-04-25T03:33:03;9.10;99.90
814;DHT22;389;48.710;9.392;2023-04-25T03:35:28;9.00;99.90
814;DHT22;389;48.710;9.392;2023-04-25T03:37:54;9.00;99.90
814;DHT22;389;48.710;9.392;2023-04-25T03:40:20;9.00;99.90
814;DHT22;389;48.710;9.392;2023-04-25T03:42:45;9.00;99.90
814;DHT22;389;48.710;9.392;2023-04-25T03:45:11;9.00;99.90
814;DHT22;389;48.710;9.392;2023-04-25T03:47:36;9.00;99.90
814;DHT22;389;48.710;9.392;2023-04-25T03:50:02;9.00;99.90
814;DHT22;389;48.710;9.392;2023-04-25T03:52:28;9.00;99.90
814;DHT22;389;48.710;9.392;2023-04-25T03:54:53;9.10;99.90
814;DHT22;389;48.710;9.392;2023-04-25T03:57:19;9.00;99.90
814;DHT22;389;48.710;9.392;2023-04-25T03:59:45;9.00;99.90
814;DHT22;389;48.710;9.392;2023-04-25T04:02:10;8.90;99.90
814;DHT22;389;48.710;9.392;2023-04-25T04:04:36;8.90;99.90
814;DHT22;389;48.710;9.392;2023-04-25T04:07:02;8.80;99.90
814;DHT22;389;48.710;9.392;2023-04-25T04:09:28;8.80;99.90
814;DHT22;389;48.710;9.392;2023-04-25T04:11:53;8.70;99.90
814;DHT22;389;48.710;9.392;2023-04-25T04:14:19;8.80;99.90
814;DHT22;389;48.710;9.392;2023-04-25T04:16:44;8.70;99.90
814;DHT22;389;48.710;9.392;2023-04-25T04:19:10;8.70;99.90
814;DHT22;389;48.710;9.392;2023-04-25T04:21:36;8.70;99.90
814;DHT22;389;48.710;9.392;2023-04-25T04:24:10;8.70;99.90
814;DHT22;389;48.710;9.392;2023-04-25T04:26:35;8.70;99.90
814;DHT22;389;48.710;9.392;2023-04-25T04:29:02;8.80;99.90
814;DHT22;389;48.710;9.392;2023-04-25T04:31:28;8.80;99.90
814;DHT22;389;48.710;9.392;2023-04-25T04:33:53;8.80;99.90
814;DHT22;389;48.710;9.392;2023-04-25T04:36:19;8.80;99.90
814;DHT22;389;48.710;9.392;2023-04-25T04:38:48;8.80;99.90
814;DHT22;389;48.710;9.392;2023-04-25T04:41:14;8.80;99.90
814;DHT22;389;48.710;9.392;2023-04-25T04:43:40;8.80;99.90
814;DHT22;389;48.710;9.392;2023-04-25T04:46:05;8.80;99.90
814;DHT22;389;48.710;9.392;2023-04-25T04:48:31;8.90;99.90
814;DHT22;389;48.710;9.392;2023-04-25T04:51:00;8.90;99.90
814;DHT22;389;48.710;9.392;2023-04-25T04:53:26;9.00;99.90
814;DHT22;389;48.710;9.392;2023-04-25T04:55:52;9.10;99.90
814;DHT22;389;48.710;9.392;2023-04-25T04:58:18;9.20;99.90
814;DHT22;389;48.710;9.392;2023-04-25T05:00:44;9.10;99.90
814;DHT22;389;48.710;9.392;2023-04-25T05:03:09;9.20;99.90
814;DHT22;389;48.710;9.392;2023-04-25T05:05:36;9.30;99.90
814;DHT22;389;48.710;9.392;2023-04-25T05:08:05;9.30;99.90
814;DHT22;389;48.710;9.392;2023-04-25T05:10:31;9.40;99.90
814;DHT22;389;48.710;9.392;2023-04-25T05:12:57;9.50;99.90
814;DHT22;389;48.710;9.392;2023-04-25T05:15:22;9.60;99.90
814;DHT22;389;48.710;9.392;2023-04-25T05:17:48;9.70;99.90
814;DHT22;389;48.710;9.392;2023-04-25T05:20:13;9.80;99.90
814;DHT22;389;48.710;9.392;2023-04-25T05:22:39;9.90;99.90
814;DHT22;389;48.710;9.392;2023-04-25T05:25:07;9.90;99.90
814;DHT22;389;48.710;9.392;2023-04-25T05:27:33;10.00;99.50
814;DHT22;389;48.710;9.392;2023-04-25T05:29:59;10.10;99.40
814;DHT22;389;48.710;9.392;2023-04-25T05:32:24;10.10;99.30
814;DHT22;389;48.710;9.392;2023-04-25T05:34:50;10.10;98.80
814;DHT22;389;48.710;9.392;2023-04-25T05:37:17;10.10;98.60
814;DHT22;389;48.710;9.392;2023-04-25T05:39:42;10.20;98.60
814;DHT22;389;48.710;9.392;2023-04-25T05:42:08;10.30;98.10
814;DHT22;389;48.710;9.392;2023-04-25T05:44:33;10.10;97.50
814;DHT22;389;48.710;9.392;2023-04-25T05:46:59;10.30;97.00
814;DHT22;389;48.710;9.392;2023-04-25T05:49:25;10.40;97.00
814;DHT22;389;48.710;9.392;2023-04-25T05:51:50;10.60;97.10
814;DHT22;389;48.710;9.392;2023-04-25T05:54:16;10.60;97.00
814;DHT22;389;48.710;9.392;2023-04-25T05:56:41;10.70;96.90
814;DHT22;389;48.710;9.392;2023-04-25T05:59:07;10.80;96.80
814;DHT22;389;48.710;9.392;2023-04-25T06:01:51;10.90;96.70
814;DHT22;389;48.710;9.392;2023-04-25T06:04:17;11.00;96.40
814;DHT22;389;48.710;9.392;2023-04-25T06:06:42;11.10;95.80
814;DHT22;389;48.710;9.392;2023-04-25T06:09:08;11.20;95.40
814;DHT22;389;48.710;9.392;2023-04-25T06:11:33;11.40;95.20
814;DHT22;389;48.710;9.392;2023-04-25T06:14:00;11.60;94.90
814;DHT22;389;48.710;9.392;2023-04-25T06:16:25;11.80;94.70
814;DHT22;389;48.710;9.392;2023-04-25T06:18:51;11.90;94.20
814;DHT22;389;48.710;9.392;2023-04-25T06:21:17;12.20;93.80
814;DHT22;389;48.710;9.392;2023-04-25T06:23:42;12.30;93.30
814;DHT22;389;48.710;9.392;2023-04-25T06:26:08;12.40;92.90
814;DHT22;389;48.710;9.392;2023-04-25T06:28:33;12.50;92.10
814;DHT22;389;48.710;9.392;2023-04-25T06:31:00;12.70;92.00
814;DHT22;389;48.710;9.392;2023-04-25T06:33:26;12.70;91.70
814;DHT22;389;48.710;9.392;2023-04-25T06:35:52;12.80;91.40
814;DHT22;389;48.710;9.392;2023-04-25T06:38:18;12.70;91.10
814;DHT22;389;48.710;9.392;2023-04-25T06:40:43;12.70;91.10
814;DHT22;389;48.710;9.392;2023-04-25T06:43:09;12.70;90.90
814;DHT22;389;48.710;9.392;2023-04-25T06:45:35;12.60;90.90
814;DHT22;389;48.710;9.392;2023-04-25T06:48:00;12.60;91.10
814;DHT22;389;48.710;9.392;2023-04-25T06:50:26;12.50;91.30
814;DHT22;389;48.710;9.392;2023-04-25T06:52:52;12.50;91.00
814;DHT22;389;48.710;9.392;2023-04-25T06:55:17;12.50;90.10
814;DHT22;389;48.710;9.392;2023-04-25T06:57:43;12.50;89.90
814;DHT22;389;48.710;9.392;2023-04-25T07:00:11;12.30;90.30
814;DHT22;389;48.710;9.392;2023-04-25T07:02:37;12.20;90.40
814;DHT22;389;48.710;9.392;2023-04-25T07:05:03;12.10;90.70
814;DHT22;389;48.710;9.392;2023-04-25T07:07:30;12.10;91.10
814;DHT22;389;48.710;9.392;2023-04-25T07:10:02;12.10;91.10
814;DHT22;389;48.710;9.392;2023-04-25T07:12:27;12.20;91.30
814;DHT22;389;48.710;9.392;2023-04-25T07:15:00;12.20;91.50
814;DHT22;389;48.710;9.392;2023-04-25T07:17:31;12.10;91.50
814;DHT22;389;48.710;9.392;2023-04-25T07:19:57;12.10;91.70
814;DHT22;389;48.710;9.392;2023-04-25T07:22:22;12.20;91.40
814;DHT22;389;48.710;9.392;2023-04-25T07:24:48;12.10;91.50
814;DHT22;389;48.710;9.392;2023-04-25T07:27:23;12.00;91.40
814;DHT22;389;48.710;9.392;2023-04-25T07:29:49;12.00;91.60
814;DHT22;389;48.710;9.392;2023-04-25T07:32:30;12.00;91.60
814;DHT22;389;48.710;9.392;2023-04-25T07:34:56;12.10;91.80
814;DHT22;389;48.710;9.392;2023-04-25T07:37:22;12.00;91.80
814;DHT22;389;48.710;9.392;2023-04-25T07:39:48;12.00;92.10
814;DHT22;389;48.710;9.392;2023-04-25T07:42:14;12.00;91.90
814;DHT22;389;48.710;9.392;2023-04-25T07:44:39;12.00;92.20
814;DHT22;389;48.710;9.392;2023-04-25T07:47:09;12.00;92.50
814;DHT22;389;48.710;9.392;2023-04-25T07:49:38;12.00;92.50
814;DHT22;389;48.710;9.392;2023-04-25T07:52:04;12.00;92.60
814;DHT22;389;48.710;9.392;2023-04-25T07:54:31;12.00;92.50
814;DHT22;389;48.710;9.392;2023-04-25T07:56:57;12.00;92.40
814;DHT22;389;48.710;9.392;2023-04-25T07:59:23;12.00;92.30
814;DHT22;389;48.710;9.392;2023-04-25T08:01:49;11.80;92.80
814;DHT22;389;48.710;9.392;2023-04-25T08:04:15;11.70;93.30
814;DHT22;389;48.710;9.392;2023-04-25T08:06:41;11.60;93.90
814;DHT22;389;48.710;9.392;2023-04-25T08:09:06;11.50;94.20
814;DHT22;389;48.710;9.392;2023-04-25T08:11:33;11.30;94.40
814;DHT22;389;48.710;9.392;2023-04-25T08:14:05;11.30;94.90
814;DHT22;389;48.710;9.392;2023-04-25T08:16:30;11.40;95.10
814;DHT22;389;48.710;9.392;2023-04-25T08:18:56;11.40;95.40
814;DHT22;389;48.710;9.392;2023-04-25T08:21:21;11.40;95.50
814;DHT22;389;48.710;9.392;2023-04-25T08:23:48;11.40;95.60
814;DHT22;389;48.710;9.392;2023-04-25T08:26:14;11.50;95.80
814;DHT22;389;48.710;9.392;2023-04-25T08:28:40;11.40;96.10
814;DHT22;389;48.710;9.392;2023-04-25T08:31:05;11.50;96.40
814;DHT22;389;48.710;9.392;2023-04-25T08:36:52;11.50;96.00
814;DHT22;389;48.710;9.392;2023-04-25T08:39:18;11.40;96.00
814;DHT22;389;48.710;9.392;2023-04-25T08:41:44;11.40;96.00
814;DHT22;389;48.710;9.392;2023-04-25T08:44:11;11.30;96.10
814;DHT22;389;48.710;9.392;2023-04-25T08:46:39;11.30;96.30
814;DHT22;389;48.710;9.392;2023-04-25T08:49:07;11.20;96.30
814;DHT22;389;48.710;9.392;2023-04-25T08:51:37;11.20;96.60
814;DHT22;389;48.710;9.392;2023-04-25T08:54:10;11.10;96.70
814;DHT22;389;48.710;9.392;2023-04-25T08:56:38;11.10;96.90
814;DHT22;389;48.710;9.392;2023-04-25T08:59:04;11.10;97.10
814;DHT22;389;48.710;9.392;2023-04-25T09:01:30;11.00;97.30
814;DHT22;389;48.710;9.392;2023-04-25T09:03:57;11.00;97.50
814;DHT22;389;48.710;9.392;2023-04-25T09:06:23;11.00;97.60
814;DHT22;389;48.710;9.392;2023-04-25T09:08:50;11.00;97.60
814;DHT22;389;48.710;9.392;2023-04-25T09:11:15;10.90;97.40
814;DHT22;389;48.710;9.392;2023-04-25T09:13:41;10.90;97.30
814;DHT22;389;48.710;9.392;2023-04-25T09:16:07;10.90;97.60
814;DHT22;389;48.710;9.392;2023-04-25T09:18:34;10.90;97.70
814;DHT22;389;48.710;9.392;2023-04-25T09:21:10;10.90;97.90
814;DHT22;389;48.710;9.392;2023-04-25T09:23:47;10.90;98.00
814;DHT22;389;48.710;9.392;2023-04-25T09:26:18;11.10;98.30
814;DHT22;389;48.710;9.392;2023-04-25T09:28:45;11.10;98.40
814;DHT22;389;48.710;9.392;2023-04-25T09:31:22;11.10;98.50
814;DHT22;389;48.710;9.392;2023-04-25T09:33:47;11.20;98.50
814;DHT22;389;48.710;9.392;2023-04-25T09:36:13;11.20;98.20
814;DHT22;389;48.710;9.392;2023-04-25T09:38:44;11.30;98.10
814;DHT22;389;48.710;9.392;2023-04-25T09:41:10;11.30;97.90
814;DHT22;389;48.710;9.392;2023-04-25T09:43:36;11.20;97.40
814;DHT22;389;48.710;9.392;2023-04-25T09:46:02;11.20;97.10
814;DHT22;389;48.710;9.392;2023-04-25T09:48:32;11.10;96.60
814;DHT22;389;48.710;9.392;2023-04-25T09:53:30;10.90;96.90
814;DHT22;389;48.710;9.392;2023-04-25T09:56:00;10.90;97.10
814;DHT22;389;48.710;9.392;2023-04-25T09:58:27;10.80;97.30
814;DHT22;389;48.710;9.392;2023-04-25T10:00:56;10.80;97.50
814;DHT22;389;48.710;9.392;2023-04-25T10:03:25;10.80;97.70
814;DHT22;389;48.710;9.392;2023-04-25T10:05:52;10.70;97.60
814;DHT22;389;48.710;9.392;2023-04-25T10:08:18;10.70;97.60
814;DHT22;389;48.710;9.392;2023-04-25T10:10:47;10.70;97.80
814;DHT22;389;48.710;9.392;2023-04-25T10:13:13;10.70;97.80
814;DHT22;389;48.710;9.392;2023-04-25T10:15:56;10.60;97.80
814;DHT22;389;48.710;9.392;2023-04-25T10:18:28;10.60;97.60
814;DHT22;389;48.710;9.392;2023-04-25T10:20:57;10.60;97.70
814;DHT22;389;48.710;9.392;2023-04-25T10:23:23;10.60;97.80
814;DHT22;389;48.710;9.392;2023-04-25T10:25:51;10.60;98.10
814;DHT22;389;48.710;9.392;2023-04-25T10:28:17;10.60;98.20
814;DHT22;389;48.710;9.392;2023-04-25T10:31:10;10.60;98.30
814;DHT22;389;48.710;9.392;2023-04-25T10:33:40;10.60;98.30
814;DHT22;389;48.710;9.392;2023-04-25T10:36:12;10.60;98.60
814;DHT22;389;48.710;9.392;2023-04-25T10:38:41;10.40;98.00
814;DHT22;389;48.710;9.392;2023-04-25T10:41:08;10.30;98.20
814;DHT22;389;48.710;9.392;2023-04-25T10:43:46;10.30;98.50
814;DHT22;389;48.710;9.392;2023-04-25T10:46:29;10.10;98.70
814;DHT22;389;48.710;9.392;2023-04-25T10:49:01;10.10;98.90
814;DHT22;389;48.710;9.392;2023-04-25T10:51:29;10.10;99.10
814;DHT22;389;48.710;9.392;2023-04-25T10:56:23;10.00;99.00
814;DHT22;389;48.710;9.392;2023-04-25T10:58:50;10.00;98.90
814;DHT22;389;48.710;9.392;2023-04-25T11:01:21;10.00;99.10
814;DHT22;389;48.710;9.392;2023-04-25T11:03:46;9.90;99.60
814;DHT22;389;48.710;9.392;2023-04-25T11:09:11;9.90;99.30
814;DHT22;389;48.710;9.392;2023-04-25T11:11:40;10.00;98.80
814;DHT22;389;48.710;9.392;2023-04-25T11:14:06;10.00;98.60
814;DHT22;389;48.710;9.392;2023-04-25T11:16:31;10.00;98.60
814;DHT22;389;48.710;9.392;2023-04-25T11:18:58;10.10;98.70
814;DHT22;389;48.710;9.392;2023-04-25T11:21:25;10.10;98.50
814;DHT22;389;48.710;9.392;2023-04-25T11:23:56;10.00;98.60
814;DHT22;389;48.710;9.392;2023-04-25T11:26:24;10.00;98.90
814;DHT22;389;48.710;9.392;2023-04-25T11:28:50;10.00;98.60
814;DHT22;389;48.710;9.392;2023-04-25T11:31:16;10.00;98.80
814;DHT22;389;48.710;9.392;2023-04-25T11:33:45;10.00;98.90
814;DHT22;389;48.710;9.392;2023-04-25T11:36:11;10.00;98.70
814;DHT22;389;48.710;9.392;2023-04-25T11:38:37;10.00;98.10
814;DHT22;389;48.710;9.392;2023-04-25T11:41:03;10.00;97.60
814;DHT22;389;48.710;9.392;2023-04-25T11:43:28;9.80;97.60
814;DHT22;389;48.710;9.392;2023-04-25T11:45:54;9.70;97.90
814;DHT22;389;48.710;9.392;2023-04-25T11:48:19;9.80;98.00
814;DHT22;389;48.710;9.392;2023-04-25T11:50:45;9.60;97.70
814;DHT22;389;48.710;9.392;2023-04-25T11:53:11;9.50;97.20
814;DHT22;389;48.710;9.392;2023-04-25T11:55:37;9.40;96.70
814;DHT22;389;48.710;9.392;2023-04-25T11:58:04;9.40;96.80
814;DHT22;389;48.710;9.392;2023-04-25T12:00:30;9.40;97.00
814;DHT22;389;48.710;9.392;2023-04-25T12:02:56;9.50;97.50
814;DHT22;389;48.710;9.392;2023-04-25T12:05:30;9.70;97.70
814;DHT22;389;48.710;9.392;2023-04-25T12:08:09;9.80;97.20
814;DHT22;389;48.710;9.392;2023-04-25T12:10:38;10.00;96.40
814;DHT22;389;48.710;9.392;2023-04-25T12:13:19;10.30;96.30
814;DHT22;389;48.710;9.392;2023-04-25T12:15:45;10.50;96.10
814;DHT22;389;48.710;9.392;2023-04-25T12:18:10;10.70;95.60
814;DHT22;389;48.710;9.392;2023-04-25T12:20:36;10.80;95.10
814;DHT22;389;48.710;9.392;2023-04-25T12:23:05;10.80;94.30
814;DHT22;389;48.710;9.392;2023-04-25T12:25:44;11.10;94.40
814;DHT22;389;48.710;9.392;2023-04-25T12:28:21;11.20;94.40
814;DHT22;389;48.710;9.392;2023-04-25T12:31:01;11.40;94.80
814;DHT22;389;48.710;9.392;2023-04-25T12:33:37;11.60;95.10
814;DHT22;389;48.710;9.392;2023-04-25T12:36:06;11.70;95.20
814;DHT22;389;48.710;9.392;2023-04-25T12:38:38;11.70;95.20
814;DHT22;389;48.710;9.392;2023-04-25T12:41:04;11.70;95.30
814;DHT22;389;48.710;9.392;2023-04-25T12:43:30;11.70;95.30
814;DHT22;389;48.710;9.392;2023-04-25T12:45:56;11.70;95.50
814;DHT22;389;48.710;9.392;2023-04-25T12:48:22;11.80;95.20
814;DHT22;389;48.710;9.392;2023-04-25T12:50:49;11.80;94.40
814;DHT22;389;48.710;9.392;2023-04-25T12:53:19;11.90;94.10
814;DHT22;389;48.710;9.392;2023-04-25T12:55:45;12.00;94.40
814;DHT22;389;48.710;9.392;2023-04-25T12:58:12;12.00;94.10
814;DHT22;389;48.710;9.392;2023-04-25T13:00:38;12.10;94.40
814;DHT22;389;48.710;9.392;2023-04-25T13:03:04;12.20;94.90
814;DHT22;389;48.710;9.392;2023-04-25T13:05:30;12.30;94.60
814;DHT22;389;48.710;9.392;2023-04-25T13:07:56;12.30;94.40
814;DHT22;389;48.710;9.392;2023-04-25T13:10:21;12.30;94.20
814;DHT22;389;48.710;9.392;2023-04-25T13:12:47;12.40;94.40
814;DHT22;389;48.710;9.392;2023-04-25T13:15:13;12.50;94.10
814;DHT22;389;48.710;9.392;2023-04-25T13:17:43;12.60;94.30
814;DHT22;389;48.710;9.392;2023-04-25T13:20:09;12.70;94.20
814;DHT22;389;48.710;9.392;2023-04-25T13:22:39;12.80;94.10
814;DHT22;389;48.710;9.392;2023-04-25T13:25:06;12.90;94.20
814;DHT22;389;48.710;9.392;2023-04-25T13:27:32;13.00;94.40
814;DHT22;389;48.710;9.392;2023-04-25T13:30:00;13.20;93.90
814;DHT22;389;48.710;9.392;2023-04-25T13:32:26;13.40;93.60
814;DHT22;389;48.710;9.392;2023-04-25T13:34:53;13.40;93.90
814;DHT22;389;48.710;9.392;2023-04-25T13:37:18;13.50;93.20
814;DHT22;389;48.710;9.392;2023-04-25T13:39:44;13.40;93.20
814;DHT22;389;48.710;9.392;2023-04-25T13:42:09;13.60;93.70
814;DHT22;389;48.710;9.392;2023-04-25T13:44:36;13.60;93.40
814;DHT22;389;48.710;9.392;2023-04-25T13:47:01;13.80;92.50
814;DHT22;389;48.710;9.392;2023-04-25T13:49:27;14.00;92.60
814;DHT22;389;48.710;9.392;2023-04-25T13:51:52;14.10;92.10
814;DHT22;389;48.710;9.392;2023-04-25T13:54:18;14.30;91.80
814;DHT22;389;48.710;9.392;2023-04-25T13:56:44;14.20;91.70
814;DHT22;389;48.710;9.392;2023-04-25T13:59:10;14.20;90.20
814;DHT22;389;48.710;9.392;2023-04-25T14:01:36;14.20;90.20
814;DHT22;389;48.710;9.392;2023-04-25T14:04:02;14.30;90.80
814;DHT22;389;48.710;9.392;2023-04-25T14:06:29;14.30;90.70
814;DHT22;389;48.710;9.392;2023-04-25T14:08:55;14.40;90.90
814;DHT22;389;48.710;9.392;2023-04-25T14:11:21;14.60;90.90
814;DHT22;389;48.710;9.392;2023-04-25T14:13:47;14.50;90.70
814;DHT22;389;48.710;9.392;2023-04-25T14:16:15;14.60;90.80
814;DHT22;389;48.710;9.392;2023-04-25T14:18:41;14.80;91.00
814;DHT22;389;48.710;9.392;2023-04-25T14:21:06;15.00;90.60
814;DHT22;389;48.710;9.392;2023-04-25T14:23:32;15.10;90.00
814;DHT22;389;48.710;9.392;2023-04-25T14:25:57;15.30;89.40
814;DHT22;389;48.710;9.392;2023-04-25T14:28:23;15.30;90.10
814;DHT22;389;48.710;9.392;2023-04-25T14:30:48;15.30;89.60
814;DHT22;389;48.710;9.392;2023-04-25T14:33:14;15.30;89.90
814;DHT22;389;48.710;9.392;2023-04-25T14:35:40;15.30;89.00
814;DHT22;389;48.710;9.392;2023-04-25T14:38:05;15.20;89.00
814;DHT22;389;48.710;9.392;2023-04-25T14:40:31;15.20;89.10
814;DHT22;389;48.710;9.392;2023-04-25T14:43:06;15.10;89.10
814;DHT22;389;48.710;9.392;2023-04-25T14:45:31;15.00;87.40
814;DHT22;389;48.710;9.392;2023-04-25T14:47:57;14.90;89.20
814;DHT22;389;48.710;9.392;2023-04-25T14:50:22;14.90;89.00
814;DHT22;389;48.710;9.392;2023-04-25T14:52:48;14.90;89.00
814;DHT22;389;48.710;9.392;2023-04-25T14:55:13;14.90;89.60
814;DHT22;389;48.710;9.392;2023-04-25T14:57:39;14.70;88.30
814;DHT22;389;48.710;9.392;2023-04-25T15:00:05;14.80;87.60
814;DHT22;389;48.710;9.392;2023-04-25T15:02:35;14.70;87.60
814;DHT22;389;48.710;9.392;2023-04-25T15:05:01;14.60;89.30
814;DHT22;389;48.710;9.392;2023-04-25T15:07:27;14.70;90.10
814;DHT22;389;48.710;9.392;2023-04-25T15:09:52;14.50;87.70
814;DHT22;389;48.710;9.392;2023-04-25T15:12:19;14.50;88.60
814;DHT22;389;48.710;9.392;2023-04-25T15:14:45;14.60;90.00
814;DHT22;389;48.710;9.392;2023-04-25T15:17:10;14.50;89.40
814;DHT22;389;48.710;9.392;2023-04-25T15:19:39;14.60;90.00
814;DHT22;389;48.710;9.392;2023-04-25T15:22:05;14.60;88.70
814;DHT22;389;48.710;9.392;2023-04-25T15:24:32;14.80;88.70
814;DHT22;389;48.710;9.392;2023-04-25T15:26:57;14.80;87.90
814;DHT22;389;48.710;9.392;2023-04-25T15:29:23;14.80;87.10
814;DHT22;389;48.710;9.392;2023-04-25T15:31:49;14.80;87.80
814;DHT22;389;48.710;9.392;2023-04-25T15:34:15;14.90;87.10
814;DHT22;389;48.710;9.392;2023-04-25T15:36:41;15.00;85.30
814;DHT22;389;48.710;9.392;2023-04-25T15:39:07;14.90;85.70
814;DHT22;389;48.710;9.392;2023-04-25T15:41:33;14.80;85.70
814;DHT22;389;48.710;9.392;2023-04-25T15:43:59;14.80;86.70
814;DHT22;389;48.710;9.392;2023-04-25T15:46:26;14.80;85.80
814;DHT22;389;48.710;9.392;2023-04-25T15:48:53;14.80;85.40
814;DHT22;389;48.710;9.392;2023-04-25T15:51:20;14.60;86.00
814;DHT22;389;48.710;9.392;2023-04-25T15:53:47;14.50;86.20
814;DHT22;389;48.710;9.392;2023-04-25T15:56:19;14.50;85.90
814;DHT22;389;48.710;9.392;2023-04-25T15:58:48;14.30;86.10
814;DHT22;389;48.710;9.392;2023-04-25T16:01:15;14.20;86.20
814;DHT22;389;48.710;9.392;2023-04-25T16:03:42;14.20;86.40
814;DHT22;389;48.710;9.392;2023-04-25T16:06:09;14.00;86.90
814;DHT22;389;48.710;9.392;2023-04-25T16:08:38;14.00;86.20
814;DHT22;389;48.710;9.392;2023-04-25T16:11:04;13.90;86.80
814;DHT22;389;48.710;9.392;2023-04-25T16:13:29;13.70;86.40
814;DHT22;389;48.710;9.392;2023-04-25T16:15:56;13.60;87.10
814;DHT22;389;48.710;9.392;2023-04-25T16:18:22;13.60;88.00
814;DHT22;389;48.710;9.392;2023-04-25T16:20:47;13.50;88.30
814;DHT22;389;48.710;9.392;2023-04-25T16:23:13;13.60;87.80
814;DHT22;389;48.710;9.392;2023-04-25T16:25:38;13.40;88.00
814;DHT22;389;48.710;9.392;2023-04-25T16:28:04;13.20;88.10
814;DHT22;389;48.710;9.392;2023-04-25T16:30:29;13.10;88.30
814;DHT22;389;48.710;9.392;2023-04-25T16:32:55;13.00;88.30
814;DHT22;389;48.710;9.392;2023-04-25T16:35:21;12.90;88.30
814;DHT22;389;48.710;9.392;2023-04-25T16:37:47;12.80;88.70
814;DHT22;389;48.710;9.392;2023-04-25T16:40:15;12.70;89.00
814;DHT22;389;48.710;9.392;2023-04-25T16:42:41;12.70;88.40
814;DHT22;389;48.710;9.392;2023-04-25T16:45:07;12.60;88.40
814;DHT22;389;48.710;9.392;2023-04-25T16:47:33;12.50;87.10